Time;durP1;ratioP1;P1;durP2;ratioP2;P2;SDS_P1;SDS_P2;PMS_P1;PMS_P2;Temp;Humidity;BMP_temperature;BMP_pressure;BME280_temperature;BME280_humidity;BME280_pressure;Samples;Min_cycle;Max_cycle;Signal;HPM_P1;HPM_P2
2022/08/10 00:03:12;;;;;;;14.52;6.07;;;13.80;99.90;;;;;;10363421;28;20432;-79
2022/08/10 00:08:13;;;;;;;11.75;6.15;;;13.80;99.90;;;;;;10363979;28;20026;-81
2022/08/10 00:13:13;;;;;;;13.65;7.78;;;14.00;99.90;;;;;;10367116;28;20539;-80
2022/08/10 00:18:14;;;;;;;19.50;10.63;;;14.20;99.90;;;;;;10346696;28;20049;-79
2022/08/10 00:23:14;;;;;;;24.23;13.48;;;14.30;99.90;;;;;;10367297;28;20034;-80
2022/08/10 00:28:15;;;;;;;11.27;6.28;;;14.40;99.90;;;;;;10366839;28;20111;-79
2022/08/10 00:33:16;;;;;;;23.85;12.23;;;14.40;99.90;;;;;;10364360;28;20029;-80
2022/08/10 00:38:16;;;;;;;12.85;7.70;;;14.60;99.90;;;;;;10360902;28;20397;-81
2022/08/10 00:43:17;;;;;;;9.63;6.18;;;14.60;99.90;;;;;;10366654;28;20561;-81
2022/08/10 00:48:17;;;;;;;10.27;5.93;;;14.70;99.90;;;;;;10360830;28;20553;-80
2022/08/10 00:53:18;;;;;;;10.27;6.13;;;14.70;99.90;;;;;;10363385;28;20033;-79
2022/08/10 00:58:19;;;;;;;11.63;6.00;;;14.70;99.90;;;;;;10365200;28;20070;-80
2022/08/10 01:03:20;;;;;;;13.80;7.15;;;14.70;99.90;;;;;;10362731;28;20228;-79
2022/08/10 01:08:45;;;;;;;11.40;6.47;;;14.60;99.90;;;;;;10356726;28;20116;-81
2022/08/10 01:14:02;;;;;;;12.93;7.75;;;14.60;99.90;;;;;;10363524;28;20038;-79
2022/08/10 01:19:05;;;;;;;13.27;7.25;;;14.50;99.90;;;;;;10362276;28;20542;-80
2022/08/10 01:24:21;;;;;;;10.95;6.57;;;14.40;99.90;;;;;;10361213;28;20379;-80
2022/08/10 01:29:58;;;;;;;11.90;6.50;;;14.30;99.90;;;;;;10361422;28;20060;-79
2022/08/10 01:35:24;;;;;;;12.40;6.75;;;14.30;99.90;;;;;;10358478;28;20033;-80
2022/08/10 01:40:27;;;;;;;;;;;14.30;99.90;;;;;;10361443;28;20037;-79
2022/08/10 01:45:29;;;;;;;10.07;6.90;;;14.30;99.90;;;;;;10363751;28;20010;-79
2022/08/10 01:50:44;;;;;;;12.63;7.32;;;14.30;99.90;;;;;;10362681;28;20390;-80
2022/08/10 01:55:48;;;;;;;10.43;7.68;;;14.20;99.90;;;;;;10359575;28;20099;-80
2022/08/10 02:00:50;;;;;;;13.80;7.50;;;14.10;99.90;;;;;;10363372;28;20038;-81
2022/08/10 02:05:54;;;;;;;12.65;7.85;;;14.00;99.90;;;;;;10362999;28;20038;-81
2022/08/10 02:10:56;;;;;;;13.45;7.60;;;14.00;99.90;;;;;;10362890;28;20037;-80
2022/08/10 02:15:58;;;;;;;12.00;7.55;;;13.90;99.90;;;;;;10359239;28;20057;-79
2022/08/10 02:21:03;;;;;;;10.93;7.18;;;13.80;99.90;;;;;;10357271;28;20033;-79
2022/08/10 02:26:05;;;;;;;14.85;8.50;;;13.80;99.90;;;;;;10358678;28;20094;-80
2022/08/10 02:31:16;;;;;;;18.45;7.47;;;13.70;99.90;;;;;;10361955;28;20429;-79
2022/08/10 02:36:18;;;;;;;11.32;7.68;;;13.70;99.90;;;;;;10353722;28;20033;-79
2022/08/10 02:41:28;;;;;;;12.38;6.72;;;13.70;99.90;;;;;;10360641;28;20440;-79
2022/08/10 02:46:44;;;;;;;15.00;7.38;;;13.70;99.90;;;;;;10360690;28;20061;-81
2022/08/10 02:51:57;;;;;;;14.95;8.10;;;13.60;99.90;;;;;;10362457;28;20037;-79
2022/08/10 02:57:01;;;;;;;10.35;7.00;;;13.60;99.90;;;;;;10361354;28;20449;-80
2022/08/10 03:02:04;;;;;;;13.38;8.38;;;13.50;99.90;;;;;;10339387;28;20038;-80
2022/08/10 03:07:09;;;;;;;11.25;7.97;;;13.60;99.90;;;;;;10354577;28;20030;-81
2022/08/10 03:12:12;;;;;;;12.82;8.25;;;13.50;99.90;;;;;;10359915;28;20034;-80
2022/08/10 03:17:15;;;;;;;14.38;8.27;;;13.50;99.90;;;;;;10360440;28;20426;-82
2022/08/10 03:22:17;;;;;;;16.58;8.57;;;13.50;99.90;;;;;;10350745;28;20057;-80
2022/08/10 03:27:18;;;;;;;14.50;7.88;;;13.50;99.90;;;;;;10353523;28;20108;-81
2022/08/10 03:32:22;;;;;;;13.63;8.93;;;13.40;99.90;;;;;;10353293;28;20022;-79
2022/08/10 03:37:23;;;;;;;12.70;7.82;;;13.40;99.90;;;;;;10359582;28;20038;-78
2022/08/10 03:42:26;;;;;;;14.30;8.80;;;13.40;99.90;;;;;;10361917;28;20445;-79
2022/08/10 03:47:29;;;;;;;11.15;7.78;;;13.40;99.90;;;;;;10361113;28;20033;-79
2022/08/10 03:52:31;;;;;;;14.18;8.57;;;13.40;99.90;;;;;;10365873;28;20034;-79
2022/08/10 03:57:31;;;;;;;15.43;9.23;;;13.40;99.90;;;;;;10367830;28;20565;-80
2022/08/10 04:02:32;;;;;;;18.52;8.75;;;13.40;99.90;;;;;;10358344;28;20029;-80
2022/08/10 04:07:35;;;;;;;19.02;11.95;;;13.40;99.90;;;;;;10364817;28;20038;-82
2022/08/10 04:12:35;;;;;;;10.90;7.88;;;13.50;99.90;;;;;;10362830;28;20030;-80
2022/08/10 04:17:36;;;;;;;13.20;7.70;;;13.50;99.90;;;;;;10362994;28;20037;-79
2022/08/10 04:22:38;;;;;;;14.48;10.05;;;13.50;99.90;;;;;;10367986;28;20058;-80
2022/08/10 04:27:43;;;;;;;11.63;8.57;;;13.60;99.90;;;;;;10363905;28;20053;-79
2022/08/10 04:32:48;;;;;;;16.33;8.30;;;13.70;99.90;;;;;;10359315;28;20080;-81
2022/08/10 04:37:51;;;;;;;15.32;8.27;;;13.70;99.90;;;;;;10354650;28;20129;-80
2022/08/10 04:42:52;;;;;;;13.25;8.60;;;13.80;99.90;;;;;;10345407;28;20073;-82
2022/08/10 04:47:53;;;;;;;14.32;8.13;;;13.90;99.90;;;;;;10357709;28;20037;-80
2022/08/10 04:52:54;;;;;;;13.93;7.72;;;14.00;99.90;;;;;;10350567;28;20473;-84
2022/08/10 04:57:55;;;;;;;10.82;7.60;;;14.10;99.90;;;;;;10361621;28;20562;-83
2022/08/10 05:02:55;;;;;;;13.05;7.60;;;14.20;99.90;;;;;;10350980;28;20044;-81
2022/08/10 05:07:56;;;;;;;12.95;7.95;;;14.30;99.90;;;;;;10359960;28;20060;-85
2022/08/10 05:12:56;;;;;;;11.20;7.25;;;14.50;99.90;;;;;;10349644;28;20030;-82
2022/08/10 05:17:57;;;;;;;15.48;8.00;;;14.60;99.90;;;;;;10365931;28;20052;-83
2022/08/10 05:22:57;;;;;;;14.70;7.43;;;14.80;99.90;;;;;;10361607;28;20029;-81
2022/08/10 05:27:58;;;;;;;12.27;7.82;;;15.00;99.90;;;;;;10343729;28;20116;-82
2022/08/10 05:32:59;;;;;;;11.13;7.30;;;15.30;99.90;;;;;;10362253;28;20038;-81
2022/08/10 05:38:01;;;;;;;11.90;7.28;;;15.50;99.90;;;;;;10358129;28;20233;-82
2022/08/10 05:43:02;;;;;;;11.45;6.90;;;15.70;99.90;;;;;;10363307;28;20037;-82
2022/08/10 05:48:03;;;;;;;13.77;7.35;;;16.00;99.90;;;;;;10363933;28;20033;-84
2022/08/10 05:53:04;;;;;;;13.73;8.13;;;16.20;99.90;;;;;;10362204;28;20486;-81
2022/08/10 05:58:05;;;;;;;9.60;6.15;;;16.50;99.90;;;;;;10359525;28;20061;-82
2022/08/10 06:03:09;;;;;;;7.60;6.07;;;16.70;99.90;;;;;;10362442;28;20125;-81
2022/08/10 06:08:18;;;;;;;10.27;6.85;;;17.00;99.90;;;;;;10363096;28;20030;-82
2022/08/10 06:18:40;;;;;;;7.63;5.53;;;17.50;99.90;;;;;;10355836;28;20046;-82
2022/08/10 06:23:42;;;;;;;10.95;6.80;;;17.60;99.90;;;;;;10345716;28;20040;-83
2022/08/10 06:28:57;;;;;;;10.40;5.72;;;17.80;99.90;;;;;;10361857;28;20029;-85
2022/08/10 06:33:59;;;;;;;7.80;4.70;;;18.10;99.90;;;;;;10361382;28;20134;-84
2022/08/10 06:38:59;;;;;;;9.32;4.18;;;18.40;99.90;;;;;;10363519;28;20375;-82
2022/08/10 06:44:08;;;;;;;6.85;4.43;;;18.60;99.90;;;;;;10363321;28;20038;-82
2022/08/10 06:49:10;;;;;;;8.60;4.57;;;18.90;99.90;;;;;;10345584;28;20045;-82
2022/08/10 06:54:13;;;;;;;5.78;4.20;;;19.10;99.90;;;;;;10361553;28;20663;-84
2022/08/10 06:59:26;;;;;;;5.25;3.42;;;19.30;98.20;;;;;;10363092;28;20089;-82
2022/08/10 07:04:33;;;;;;;10.95;3.50;;;19.60;96.60;;;;;;10363332;28;20509;-83
2022/08/10 07:09:36;;;;;;;6.20;3.33;;;19.80;93.20;;;;;;10361845;28;20025;-81
2022/08/10 07:14:41;;;;;;;5.00;3.17;;;19.90;91.60;;;;;;10360107;28;20044;-80
2022/08/10 07:19:44;;;;;;;5.03;3.20;;;20.70;92.30;;;;;;10365569;28;20371;-81
2022/08/10 07:24:46;;;;;;;5.65;3.63;;;22.10;89.80;;;;;;10353909;28;20014;-80
2022/08/10 07:29:48;;;;;;;6.90;3.70;;;22.70;83.30;;;;;;10360024;28;20037;-81
2022/08/10 07:34:52;;;;;;;7.72;4.13;;;22.70;80.80;;;;;;10367171;28;20026;-81
2022/08/10 07:39:53;;;;;;;8.82;4.28;;;22.30;81.90;;;;;;10367417;28;20481;-80
2022/08/10 07:44:54;;;;;;;9.60;4.57;;;22.30;81.20;;;;;;10368887;28;20030;-81
2022/08/10 07:50:00;;;;;;;7.00;3.90;;;22.50;81.20;;;;;;10365399;28;20022;-80
2022/08/10 07:55:02;;;;;;;5.03;3.47;;;22.70;81.80;;;;;;10365465;28;20046;-80
2022/08/10 08:00:09;;;;;;;4.13;3.05;;;22.70;80.60;;;;;;10369749;28;20039;-81
2022/08/10 08:05:13;;;;;;;6.35;3.30;;;22.80;78.10;;;;;;10370471;28;20041;-81
2022/08/10 08:10:16;;;;;;;3.95;2.67;;;22.90;76.00;;;;;;10368996;28;20022;-80
2022/08/10 08:15:20;;;;;;;6.63;3.30;;;23.20;77.90;;;;;;10347715;28;20025;-80
2022/08/10 08:20:23;;;;;;;5.03;2.80;;;23.00;74.90;;;;;;10363206;28;20378;-81
2022/08/10 08:25:24;;;;;;;6.43;2.88;;;22.90;75.60;;;;;;10367244;28;20014;-82
2022/08/10 08:30:25;;;;;;;8.25;3.10;;;23.00;74.90;;;;;;10362527;28;20378;-80
2022/08/10 08:35:26;;;;;;;2.78;2.30;;;23.30;76.70;;;;;;10364645;28;20502;-81
2022/08/10 08:40:32;;;;;;;3.92;2.70;;;24.00;77.40;;;;;;10366353;28;20072;-81
2022/08/10 08:45:59;;;;;;;4.63;2.70;;;24.00;71.90;;;;;;10367300;28;20036;-80
2022/08/10 08:51:16;;;;;;;4.38;3.10;;;22.90;73.40;;;;;;10361284;28;20084;-81
2022/08/10 08:56:52;;;;;;;3.97;2.83;;;22.70;73.90;;;;;;10348236;28;20476;-80
2022/08/10 09:01:52;;;;;;;3.58;2.53;;;23.10;73.10;;;;;;10341946;28;20026;-81
2022/08/10 09:07:08;;;;;;;4.63;2.80;;;23.70;71.50;;;;;;10348895;28;20038;-80
2022/08/10 09:12:32;;;;;;;4.28;2.40;;;23.00;73.10;;;;;;10365177;28;20176;-80
2022/08/10 09:18:03;;;;;;;3.77;2.77;;;23.50;73.50;;;;;;10358529;28;20037;-80
2022/08/10 09:23:36;;;;;;;4.90;2.60;;;23.80;70.30;;;;;;10355970;28;20061;-80
2022/08/10 09:28:40;;;;;;;3.42;2.60;;;23.20;70.50;;;;;;10352593;28;20128;-82
2022/08/10 09:33:59;;;;;;;3.03;2.57;;;23.50;74.70;;;;;;10360661;28;20030;-81
2022/08/10 09:39:26;;;;;;;5.38;2.10;;;23.80;68.50;;;;;;10362502;28;20108;-80
2022/08/10 09:44:32;;;;;;;4.03;2.60;;;24.20;68.50;;;;;;10362084;28;20038;-82
2022/08/10 09:50:04;;;;;;;4.25;2.78;;;24.50;68.80;;;;;;10356340;28;20643;-80
2022/08/10 09:55:41;;;;;;;4.85;2.40;;;24.20;69.00;;;;;;10363589;28;20057;-80
2022/08/10 10:01:00;;;;;;;5.60;3.15;;;23.60;69.60;;;;;;10361577;28;20143;-81
2022/08/10 10:06:04;;;;;;;5.57;3.28;;;23.20;71.70;;;;;;10359456;28;20172;-80
2022/08/10 10:11:38;;;;;;;5.90;3.10;;;23.80;70.70;;;;;;10361347;28;20081;-81
2022/08/10 10:17:04;;;;;;;4.33;2.40;;;24.00;70.80;;;;;;10354137;28;20362;-81
2022/08/10 10:22:32;;;;;;;4.05;2.35;;;24.20;70.60;;;;;;10361942;28;20033;-81
2022/08/10 10:28:09;;;;;;;7.32;2.55;;;24.70;67.00;;;;;;10361323;28;20029;-80
2022/08/10 10:33:23;;;;;;;2.30;1.92;;;25.00;65.90;;;;;;10361430;28;20092;-81
2022/08/10 10:38:28;;;;;;;4.03;2.30;;;25.40;68.10;;;;;;10357879;28;20080;-80
2022/08/10 10:43:41;;;;;;;2.47;1.83;;;26.00;63.60;;;;;;10361909;28;20018;-81
2022/08/10 10:48:59;;;;;;;2.28;1.90;;;25.80;62.60;;;;;;10363196;28;20029;-81
2022/08/10 10:54:09;;;;;;;2.78;2.10;;;26.20;63.80;;;;;;10362839;28;20028;-82
2022/08/10 10:59:31;;;;;;;4.85;2.10;;;26.20;62.90;;;;;;10370143;28;20143;-81
2022/08/10 11:05:09;;;;;;;3.45;2.10;;;25.70;63.60;;;;;;10371372;28;20112;-82
2022/08/10 11:10:17;;;;;;;3.17;1.90;;;25.70;66.80;;;;;;10352473;28;20068;-82
2022/08/10 11:15:33;;;;;;;2.42;1.90;;;25.70;63.10;;;;;;10364758;28;20536;-82
2022/08/10 11:20:41;;;;;;;2.53;2.10;;;26.20;63.10;;;;;;10371599;28;20025;-81
2022/08/10 11:25:46;;;;;;;3.97;2.17;;;26.10;62.80;;;;;;10360138;28;20022;-80
2022/08/10 11:30:58;;;;;;;2.17;1.92;;;25.90;62.80;;;;;;10360878;28;20022;-83
2022/08/10 11:36:04;;;;;;;5.97;2.58;;;25.90;62.40;;;;;;10366168;28;20029;-81
2022/08/10 11:41:24;;;;;;;3.63;2.17;;;25.70;62.20;;;;;;10366515;28;20036;-81
2022/08/10 11:46:35;;;;;;;1.38;1.27;;;25.30;64.10;;;;;;10361133;28;20034;-82
2022/08/10 11:51:43;;;;;;;3.90;2.33;;;25.10;65.30;;;;;;10364501;28;20022;-81
2022/08/10 11:56:51;;;;;;;2.72;1.98;;;25.40;62.80;;;;;;10364067;28;20045;-80
2022/08/10 12:01:53;;;;;;;4.25;1.95;;;25.80;64.80;;;;;;10363093;28;20486;-82
2022/08/10 12:06:55;;;;;;;6.10;2.03;;;26.00;60.10;;;;;;10366953;28;20105;-83
2022/08/10 12:11:58;;;;;;;2.72;2.20;;;25.90;60.70;;;;;;10364737;28;20109;-81
2022/08/10 12:17:19;;;;;;;3.63;1.60;;;25.70;62.80;;;;;;10366254;28;20041;-81
2022/08/10 12:22:29;;;;;;;4.50;2.05;;;25.60;63.20;;;;;;10337020;28;20033;-80
2022/08/10 12:27:39;;;;;;;5.85;2.42;;;25.00;62.50;;;;;;10365203;28;20183;-80
2022/08/10 12:33:00;;;;;;;3.33;1.90;;;24.80;64.70;;;;;;10343596;28;20083;-83
2022/08/10 12:38:29;;;;;;;2.92;1.60;;;25.30;63.60;;;;;;10346206;28;20413;-81
2022/08/10 12:43:38;;;;;;;4.15;1.98;;;25.90;61.00;;;;;;10348287;28;20117;-80
2022/08/10 12:49:02;;;;;;;3.50;2.10;;;26.50;64.10;;;;;;10360692;28;20390;-80
2022/08/10 12:54:12;;;;;;;2.63;1.85;;;27.10;59.40;;;;;;10347944;28;20044;-80
2022/08/10 12:59:15;;;;;;;2.50;1.50;;;25.60;60.00;;;;;;10363163;28;20722;-79
2022/08/10 13:04:23;;;;;;;2.40;1.30;;;24.70;64.60;;;;;;10348507;28;20026;-80
2022/08/10 13:09:24;;;;;;;2.13;1.20;;;25.20;61.90;;;;;;10345326;28;20490;-81
2022/08/10 13:14:45;;;;;;;1.67;1.30;;;25.80;58.40;;;;;;10346475;28;20482;-82
2022/08/10 13:19:49;;;;;;;3.05;1.40;;;26.20;58.60;;;;;;10362452;28;20061;-82
2022/08/10 13:24:52;;;;;;;1.95;1.23;;;26.00;56.20;;;;;;10364596;28;20374;-81
2022/08/10 13:30:00;;;;;;;2.40;1.92;;;26.20;59.10;;;;;;10364789;28;20078;-80
2022/08/10 13:35:07;;;;;;;2.85;1.70;;;25.60;59.40;;;;;;10359246;28;20065;-82
2022/08/10 13:40:13;;;;;;;2.92;1.63;;;24.60;61.80;;;;;;10355717;28;20043;-82
2022/08/10 13:45:19;;;;;;;2.65;2.00;;;24.20;63.30;;;;;;10356083;28;20026;-82
2022/08/10 13:50:26;;;;;;;2.85;1.90;;;24.30;63.10;;;;;;10362864;28;20476;-83
2022/08/10 13:55:28;;;;;;;1.98;1.40;;;24.80;65.20;;;;;;10364001;28;20073;-83
2022/08/10 14:00:32;;;;;;;4.05;1.50;;;25.30;62.20;;;;;;10363543;28;20038;-83
2022/08/10 14:05:41;;;;;;;1.52;1.42;;;25.50;59.50;;;;;;10359275;28;20018;-82
2022/08/10 14:10:43;;;;;;;1.58;1.25;;;25.70;57.70;;;;;;10344575;28;20034;-80
2022/08/10 14:15:48;;;;;;;3.17;1.10;;;25.70;56.60;;;;;;10357468;28;20021;-82
2022/08/10 14:32:46;;;;;;;2.63;1.33;;;24.90;55.70;;;;;;10361447;28;20061;-82
2022/08/10 14:38:34;;;;;;;2.95;1.20;;;24.70;57.70;;;;;;10356947;28;20043;-83
2022/08/10 15:01:44;;;;;;;5.20;2.88;;;24.40;61.20;;;;;;10354051;28;20054;-84
2022/08/10 15:07:28;;;;;;;3.97;1.65;;;24.50;60.80;;;;;;10358406;28;20034;-82
2022/08/10 15:13:07;;;;;;;3.50;2.22;;;24.40;60.20;;;;;;10350541;28;20114;-84
2022/08/10 15:18:10;;;;;;;10.73;4.57;;;24.40;58.30;;;;;;10359072;28;20126;-84
2022/08/10 15:23:12;;;;;;;5.30;1.63;;;24.30;58.00;;;;;;10358182;28;20033;-81
2022/08/10 15:28:52;;;;;;;2.22;1.20;;;24.40;58.80;;;;;;10357238;28;20080;-81
2022/08/10 15:40:15;;;;;;;2.97;1.15;;;24.40;58.60;;;;;;10360929;28;20058;-83
2022/08/10 15:45:16;;;;;;;8.00;2.05;;;24.10;59.50;;;;;;10348096;28;20030;-83
2022/08/10 15:50:47;;;;;;;2.97;1.50;;;23.60;59.80;;;;;;10359548;28;20049;-84
2022/08/10 15:55:57;;;;;;;2.78;1.42;;;23.20;60.70;;;;;;10331974;28;20220;-82
2022/08/10 16:01:02;;;;;;;2.38;1.70;;;23.10;59.60;;;;;;10364815;28;20077;-83
2022/08/10 16:06:04;;;;;;;1.95;1.60;;;23.10;60.50;;;;;;10366231;28;20422;-84
2022/08/10 16:11:32;;;;;;;3.22;1.60;;;23.20;59.40;;;;;;10367135;28;20033;-84
2022/08/10 16:16:35;;;;;;;1.20;1.10;;;23.30;59.90;;;;;;10336436;28;20086;-82
2022/08/10 16:21:37;;;;;;;1.60;1.20;;;23.30;60.20;;;;;;10364495;28;20127;-83
2022/08/10 16:26:51;;;;;;;2.92;1.23;;;23.30;59.50;;;;;;10364245;28;20034;-82
2022/08/10 16:32:03;;;;;;;3.63;1.08;;;23.20;59.30;;;;;;10245415;28;20089;-83
2022/08/10 16:37:08;;;;;;;3.88;1.30;;;23.20;57.90;;;;;;10259647;28;20210;-86
2022/08/10 16:42:15;;;;;;;1.10;1.00;;;23.10;57.50;;;;;;10261508;28;20134;-88
2022/08/10 16:47:17;;;;;;;2.05;1.23;;;22.90;57.60;;;;;;10259634;28;20051;-83
2022/08/10 16:52:24;;;;;;;2.47;1.30;;;22.90;58.30;;;;;;10278145;28;20125;-82
2022/08/10 17:09:02;;;;;;;2.25;1.00;;;22.60;61.60;;;;;;10221259;28;20034;-84
2022/08/10 17:14:07;;;;;;;2.00;1.15;;;22.50;62.00;;;;;;10280250;28;20102;-83
2022/08/10 17:19:13;;;;;;;6.03;1.10;;;22.40;62.40;;;;;;10275665;28;20129;-81
2022/08/10 17:24:17;;;;;;;1.63;1.17;;;22.20;64.30;;;;;;10274617;28;20177;-82
2022/08/10 17:29:21;;;;;;;2.08;0.85;;;21.80;67.60;;;;;;10280738;28;20054;-81
2022/08/10 17:34:28;;;;;;;3.90;0.98;;;21.50;67.70;;;;;;10264074;28;20383;-82
2022/08/10 17:39:34;;;;;;;2.20;0.98;;;21.30;66.60;;;;;;10263109;28;20065;-84
2022/08/10 17:45:00;;;;;;;6.95;1.75;;;21.10;67.90;;;;;;10280232;28;20027;-84
2022/08/10 17:50:22;;;;;;;2.35;0.80;;;20.90;66.10;;;;;;10263560;28;20647;-83
2022/08/10 17:55:29;;;;;;;3.20;1.38;;;20.40;72.30;;;;;;10260339;28;20038;-82
2022/08/10 18:01:10;;;;;;;2.75;1.42;;;19.70;73.40;;;;;;10317327;28;20065;-82
2022/08/10 18:06:16;;;;;;;1.30;1.20;;;19.10;75.40;;;;;;10340172;28;20382;-81
2022/08/10 18:11:18;;;;;;;1.83;1.50;;;18.60;76.90;;;;;;10362738;28;20068;-83
2022/08/10 18:16:26;;;;;;;3.20;1.40;;;18.10;78.60;;;;;;10360550;28;20037;-82
2022/08/10 18:21:28;;;;;;;4.45;1.20;;;17.70;80.00;;;;;;10359160;28;20125;-81
2022/08/10 18:26:37;;;;;;;4.32;1.60;;;17.40;80.60;;;;;;10362582;28;20402;-81
2022/08/10 18:31:40;;;;;;;4.00;1.38;;;17.10;81.40;;;;;;10362512;28;20477;-82
2022/08/10 18:36:43;;;;;;;5.10;1.58;;;16.90;82.30;;;;;;10346968;28;20030;-81
2022/08/10 18:41:46;;;;;;;3.20;1.58;;;16.60;83.30;;;;;;10340394;28;20496;-81
2022/08/10 18:46:54;;;;;;;1.58;1.33;;;16.50;84.10;;;;;;10343304;28;20049;-80
2022/08/10 18:52:00;;;;;;;2.40;1.35;;;16.20;84.70;;;;;;10357395;28;20046;-81
2022/08/10 18:57:24;;;;;;;4.53;1.60;;;16.20;85.30;;;;;;10361353;28;20042;-80
2022/08/10 19:02:44;;;;;;;4.30;1.50;;;16.10;86.40;;;;;;10361588;28;20493;-81
2022/08/10 19:08:15;;;;;;;3.05;1.50;;;15.90;86.60;;;;;;10341751;28;20030;-80
2022/08/10 19:13:45;;;;;;;3.60;1.60;;;15.80;88.10;;;;;;10359135;28;20026;-80
2022/08/10 19:18:48;;;;;;;2.10;1.63;;;15.70;88.20;;;;;;10346742;28;20129;-81
2022/08/10 19:24:37;;;;;;;3.90;1.92;;;15.60;88.90;;;;;;10342290;28;20056;-80
2022/08/10 19:29:52;;;;;;;2.95;1.70;;;15.50;90.10;;;;;;10259252;28;20104;-81
2022/08/10 19:35:27;;;;;;;4.50;2.20;;;15.40;90.60;;;;;;10361458;28;20425;-81
2022/08/10 19:40:40;;;;;;;3.38;1.98;;;15.30;90.70;;;;;;10367558;28;20034;-82
2022/08/10 19:46:03;;;;;;;3.40;2.40;;;15.20;90.80;;;;;;10365265;28;20484;-82
2022/08/10 19:51:12;;;;;;;4.63;2.00;;;15.10;91.40;;;;;;10364861;28;20535;-81
2022/08/10 19:56:31;;;;;;;6.30;2.40;;;15.00;91.80;;;;;;10365271;28;20117;-81
2022/08/10 20:01:33;;;;;;;4.50;1.90;;;14.90;92.30;;;;;;10347811;28;20139;-81
2022/08/10 20:06:46;;;;;;;4.05;1.75;;;14.80;92.80;;;;;;10366257;28;20116;-80
2022/08/10 20:11:50;;;;;;;2.78;2.03;;;14.70;93.60;;;;;;10367127;28;20120;-81
2022/08/10 20:16:57;;;;;;;2.90;1.65;;;14.50;94.30;;;;;;10367031;28;20065;-81
2022/08/10 20:22:06;;;;;;;5.43;1.92;;;14.40;94.90;;;;;;10366950;28;20041;-80
2022/08/10 20:27:15;;;;;;;3.15;2.20;;;14.40;95.40;;;;;;10365151;28;20120;-81
2022/08/10 20:32:24;;;;;;;6.60;2.35;;;14.30;95.70;;;;;;10360979;28;20389;-81
2022/08/10 20:37:33;;;;;;;4.53;2.33;;;14.30;96.20;;;;;;10367053;28;20498;-80
2022/08/10 20:42:42;;;;;;;3.03;1.80;;;14.30;97.10;;;;;;10362530;28;20026;-80
2022/08/10 20:48:05;;;;;;;3.58;2.33;;;14.20;98.20;;;;;;10362236;28;20113;-80
2022/08/10 20:53:10;;;;;;;8.60;2.25;;;14.10;99.20;;;;;;10360619;28;20033;-81
2022/08/10 20:58:40;;;;;;;3.47;2.30;;;14.10;99.40;;;;;;10360267;28;20570;-80
2022/08/10 21:03:55;;;;;;;3.42;2.40;;;14.00;99.90;;;;;;10364720;28;20029;-80
2022/08/10 21:09:19;;;;;;;4.80;2.60;;;14.00;99.90;;;;;;10365863;28;20018;-80
2022/08/10 21:14:40;;;;;;;5.10;2.20;;;13.80;99.90;;;;;;10364785;28;20029;-80
2022/08/10 21:19:53;;;;;;;4.93;2.78;;;13.70;99.90;;;;;;10364641;28;20042;-81
2022/08/10 21:25:03;;;;;;;4.03;2.75;;;13.70;99.90;;;;;;10361932;28;20080;-81
2022/08/10 22:53:00;;;;;;;5.60;3.47;;;13.10;99.90;;;;;;10364172;28;20057;-81
2022/08/10 23:03:23;;;;;;;5.05;3.15;;;13.10;99.90;;;;;;10364029;28;20042;-80
2022/08/10 23:08:34;;;;;;;5.45;3.20;;;13.40;99.90;;;;;;10369787;28;20149;-80
2022/08/10 23:13:40;;;;;;;5.50;2.95;;;13.40;99.90;;;;;;10371249;28;20032;-81
2022/08/10 23:24:08;;;;;;;5.28;3.17;;;13.30;99.90;;;;;;10367467;28;20042;-80
2022/08/10 23:29:13;;;;;;;7.68;3.13;;;13.40;99.90;;;;;;10362974;28;20107;-80
2022/08/10 23:34:20;;;;;;;7.05;3.60;;;13.50;99.90;;;;;;10363083;28;20052;-81
2022/08/10 23:39:37;;;;;;;8.05;3.70;;;13.60;99.90;;;;;;10363114;28;20846;-81
2022/08/10 23:44:44;;;;;;;6.65;3.42;;;13.70;99.90;;;;;;10363987;28;20018;-81
2022/08/10 23:49:48;;;;;;;6.15;3.50;;;13.70;99.90;;;;;;10350507;28;20122;-81
2022/08/10 23:54:54;;;;;;;5.53;3.30;;;13.90;99.90;;;;;;10363479;28;20634;-80
